sensor_id;sensor_type;location;lat;lon;timestamp;pressure;altitude;pressure_sealevel;temperature;humidity
72428;BME280;60419;48.880;18.036;2022-07-21T00:01:24;99283.78;;;22.47;50.04
72428;BME280;60419;48.880;18.036;2022-07-21T00:04:09;99280.78;;;22.22;51.00
72428;BME280;60419;48.880;18.036;2022-07-21T00:06:54;99176.34;;;21.55;51.42
72428;BME280;60419;48.880;18.036;2022-07-21T00:09:40;99279.34;;;22.35;50.92
72428;BME280;60419;48.880;18.036;2022-07-21T00:12:25;99266.34;;;22.32;51.11
72428;BME280;60419;48.880;18.036;2022-07-21T00:15:12;99285.47;;;22.18;51.76
72428;BME280;60419;48.880;18.036;2022-07-21T00:17:58;99277.56;;;22.13;51.79
72428;BME280;60419;48.880;18.036;2022-07-21T00:20:44;99253.69;;;21.87;51.81
72428;BME280;60419;48.880;18.036;2022-07-21T00:23:29;99114.28;;;20.82;51.74
72428;BME280;60419;48.880;18.036;2022-07-21T00:26:14;99219.94;;;21.53;51.36
72428;BME280;60419;48.880;18.036;2022-07-21T00:29:00;99266.66;;;21.86;51.38
72428;BME280;60419;48.880;18.036;2022-07-21T00:31:46;99261.94;;;21.87;51.38
72428;BME280;60419;48.880;18.036;2022-07-21T00:34:32;99267.69;;;21.75;51.96
72428;BME280;60419;48.880;18.036;2022-07-21T00:37:18;99271.75;;;21.88;51.51
72428;BME280;60419;48.880;18.036;2022-07-21T00:40:04;99211.69;;;21.53;51.66
72428;BME280;60419;48.880;18.036;2022-07-21T00:42:50;99270.31;;;21.64;52.35
72428;BME280;60419;48.880;18.036;2022-07-21T00:45:36;99254.56;;;21.04;53.82
72428;BME280;60419;48.880;18.036;2022-07-21T00:48:22;99278.88;;;20.10;57.68
72428;BME280;60419;48.880;18.036;2022-07-21T00:51:07;99281.38;;;20.18;57.39
72428;BME280;60419;48.880;18.036;2022-07-21T00:53:53;99290.75;;;20.60;56.15
72428;BME280;60419;48.880;18.036;2022-07-21T00:56:39;99282.44;;;20.33;57.04
72428;BME280;60419;48.880;18.036;2022-07-21T00:59:24;99289.22;;;20.85;55.34
72428;BME280;60419;48.880;18.036;2022-07-21T01:02:13;99286.78;;;21.07;54.99
72428;BME280;60419;48.880;18.036;2022-07-21T01:04:58;99295.97;;;21.18;54.80
72428;BME280;60419;48.880;18.036;2022-07-21T01:07:52;99287.50;;;21.00;55.02
72428;BME280;60419;48.880;18.036;2022-07-21T01:10:39;99305.09;;;20.73;56.12
72428;BME280;60419;48.880;18.036;2022-07-21T01:13:24;99282.31;;;20.26;56.95
72428;BME280;60419;48.880;18.036;2022-07-21T01:16:10;99304.44;;;20.37;57.13
72428;BME280;60419;48.880;18.036;2022-07-21T01:18:55;99298.13;;;20.56;56.78
72428;BME280;60419;48.880;18.036;2022-07-21T01:21:44;99302.91;;;20.59;56.68
72428;BME280;60419;48.880;18.036;2022-07-21T01:24:30;99301.38;;;20.38;57.16
72428;BME280;60419;48.880;18.036;2022-07-21T01:27:15;99307.47;;;20.51;56.36
72428;BME280;60419;48.880;18.036;2022-07-21T01:30:01;99309.34;;;20.70;56.41
72428;BME280;60419;48.880;18.036;2022-07-21T01:32:47;99293.34;;;20.30;57.28
72428;BME280;60419;48.880;18.036;2022-07-21T01:35:32;99306.13;;;20.65;56.02
72428;BME280;60419;48.880;18.036;2022-07-21T01:38:17;99308.44;;;20.85;55.95
72428;BME280;60419;48.880;18.036;2022-07-21T01:41:23;99299.31;;;21.04;55.32
72428;BME280;60419;48.880;18.036;2022-07-21T01:44:14;99300.94;;;21.09;55.11
72428;BME280;60419;48.880;18.036;2022-07-21T01:47:00;99313.66;;;20.25;57.22
72428;BME280;60419;48.880;18.036;2022-07-21T01:49:45;99312.66;;;19.75;58.43
72428;BME280;60419;48.880;18.036;2022-07-21T01:52:31;99318.94;;;19.40;59.65
72428;BME280;60419;48.880;18.036;2022-07-21T01:55:16;99318.38;;;19.50;59.98
72428;BME280;60419;48.880;18.036;2022-07-21T01:58:02;99305.75;;;19.81;58.88
72428;BME280;60419;48.880;18.036;2022-07-21T02:00:47;99309.84;;;19.01;61.43
72428;BME280;60419;48.880;18.036;2022-07-21T02:03:33;99310.50;;;19.49;60.25
72428;BME280;60419;48.880;18.036;2022-07-21T02:06:18;99304.56;;;19.27;60.92
72428;BME280;60419;48.880;18.036;2022-07-21T02:09:04;99291.09;;;19.54;60.09
72428;BME280;60419;48.880;18.036;2022-07-21T02:11:49;99307.97;;;19.75;59.46
72428;BME280;60419;48.880;18.036;2022-07-21T02:14:35;99304.03;;;19.73;59.32
72428;BME280;60419;48.880;18.036;2022-07-21T02:17:20;99291.09;;;19.93;58.43
72428;BME280;60419;48.880;18.036;2022-07-21T02:20:06;99304.06;;;19.76;59.35
72428;BME280;60419;48.880;18.036;2022-07-21T02:22:52;99266.13;;;19.59;59.28
72428;BME280;60419;48.880;18.036;2022-07-21T02:25:37;99301.44;;;19.45;60.18
72428;BME280;60419;48.880;18.036;2022-07-21T02:28:23;99293.13;;;19.76;59.17
72428;BME280;60419;48.880;18.036;2022-07-21T02:31:09;99294.16;;;19.52;60.32
72428;BME280;60419;48.880;18.036;2022-07-21T02:33:54;99296.25;;;19.40;60.82
72428;BME280;60419;48.880;18.036;2022-07-21T02:36:40;99290.50;;;19.64;60.48
72428;BME280;60419;48.880;18.036;2022-07-21T02:39:25;99285.06;;;19.48;60.26
72428;BME280;60419;48.880;18.036;2022-07-21T02:42:11;99288.22;;;18.96;62.03
72428;BME280;60419;48.880;18.036;2022-07-21T02:44:56;99281.63;;;19.16;61.63
72428;BME280;60419;48.880;18.036;2022-07-21T02:47:57;99294.81;;;19.10;61.26
72428;BME280;60419;48.880;18.036;2022-07-21T02:50:43;99297.84;;;18.89;61.74
72428;BME280;60419;48.880;18.036;2022-07-21T02:53:29;99308.06;;;19.08;61.89
72428;BME280;60419;48.880;18.036;2022-07-21T02:56:15;99289.81;;;19.32;60.80
72428;BME280;60419;48.880;18.036;2022-07-21T02:59:00;99285.69;;;19.58;60.08
72428;BME280;60419;48.880;18.036;2022-07-21T03:01:46;99265.94;;;19.32;60.40
72428;BME280;60419;48.880;18.036;2022-07-21T03:04:32;99306.13;;;19.44;59.93
72428;BME280;60419;48.880;18.036;2022-07-21T03:07:17;99303.44;;;19.48;59.73
72428;BME280;60419;48.880;18.036;2022-07-21T03:10:03;99304.97;;;19.10;60.80
72428;BME280;60419;48.880;18.036;2022-07-21T03:12:49;99311.09;;;18.72;61.94
72428;BME280;60419;48.880;18.036;2022-07-21T03:15:36;99296.44;;;18.80;61.60
72428;BME280;60419;48.880;18.036;2022-07-21T03:18:21;99298.47;;;18.67;62.31
72428;BME280;60419;48.880;18.036;2022-07-21T03:21:07;99301.59;;;19.17;60.99
72428;BME280;60419;48.880;18.036;2022-07-21T03:23:53;99306.47;;;19.43;60.15
72428;BME280;60419;48.880;18.036;2022-07-21T03:26:38;99294.06;;;19.49;59.78
72428;BME280;60419;48.880;18.036;2022-07-21T03:29:24;99305.69;;;19.42;60.06
72428;BME280;60419;48.880;18.036;2022-07-21T03:32:09;99307.72;;;18.94;61.27
72428;BME280;60419;48.880;18.036;2022-07-21T03:34:54;99315.13;;;18.94;61.64
72428;BME280;60419;48.880;18.036;2022-07-21T03:37:45;99307.03;;;18.97;61.38
72428;BME280;60419;48.880;18.036;2022-07-21T03:40:33;99314.25;;;19.05;61.74
72428;BME280;60419;48.880;18.036;2022-07-21T03:43:19;99304.69;;;19.15;61.25
72428;BME280;60419;48.880;18.036;2022-07-21T03:46:04;99308.19;;;19.31;60.53
72428;BME280;60419;48.880;18.036;2022-07-21T03:48:50;99319.66;;;19.37;60.33
72428;BME280;60419;48.880;18.036;2022-07-21T03:51:35;99316.75;;;18.79;62.05
72428;BME280;60419;48.880;18.036;2022-07-21T03:54:21;99319.56;;;18.82;62.15
72428;BME280;60419;48.880;18.036;2022-07-21T03:57:06;99320.28;;;19.30;60.98
72428;BME280;60419;48.880;18.036;2022-07-21T03:59:51;99307.69;;;19.45;60.35
72428;BME280;60419;48.880;18.036;2022-07-21T04:02:37;99315.75;;;19.73;59.88
72428;BME280;60419;48.880;18.036;2022-07-21T04:05:23;99308.78;;;19.76;59.92
72428;BME280;60419;48.880;18.036;2022-07-21T04:08:10;99312.66;;;19.75;59.85
72428;BME280;60419;48.880;18.036;2022-07-21T04:10:56;99308.69;;;19.92;59.33
72428;BME280;60419;48.880;18.036;2022-07-21T04:13:43;99323.25;;;19.57;60.36
72428;BME280;60419;48.880;18.036;2022-07-21T04:16:29;99326.00;;;19.76;59.84
72428;BME280;60419;48.880;18.036;2022-07-21T04:19:14;99336.09;;;19.37;61.21
72428;BME280;60419;48.880;18.036;2022-07-21T04:21:59;99317.59;;;19.50;60.76
72428;BME280;60419;48.880;18.036;2022-07-21T04:24:45;99328.28;;;19.04;62.71
72428;BME280;60419;48.880;18.036;2022-07-21T04:27:31;99322.03;;;19.54;61.29
72428;BME280;60419;48.880;18.036;2022-07-21T04:30:20;99325.41;;;20.06;59.08
72428;BME280;60419;48.880;18.036;2022-07-21T04:33:05;99339.09;;;20.45;58.10
72428;BME280;60419;48.880;18.036;2022-07-21T04:35:51;99324.59;;;20.45;58.10
72428;BME280;60419;48.880;18.036;2022-07-21T04:38:37;99337.88;;;20.42;58.56
72428;BME280;60419;48.880;18.036;2022-07-21T04:41:22;99343.19;;;20.55;58.04
72428;BME280;60419;48.880;18.036;2022-07-21T04:44:08;99315.41;;;20.37;58.93
72428;BME280;60419;48.880;18.036;2022-07-21T04:46:53;99335.56;;;20.91;57.89
72428;BME280;60419;48.880;18.036;2022-07-21T04:49:38;99342.66;;;21.18;57.21
72428;BME280;60419;48.880;18.036;2022-07-21T04:52:24;99333.88;;;20.82;57.33
72428;BME280;60419;48.880;18.036;2022-07-21T04:55:11;99338.38;;;20.71;56.72
72428;BME280;60419;48.880;18.036;2022-07-21T04:57:57;99330.75;;;20.84;57.52
72428;BME280;60419;48.880;18.036;2022-07-21T05:00:44;99332.97;;;20.75;57.28
72428;BME280;60419;48.880;18.036;2022-07-21T05:03:29;99339.25;;;20.33;57.78
72428;BME280;60419;48.880;18.036;2022-07-21T05:06:15;99316.25;;;20.60;58.47
72428;BME280;60419;48.880;18.036;2022-07-21T05:09:01;99274.13;;;20.07;55.95
72428;BME280;60419;48.880;18.036;2022-07-21T05:11:46;99335.09;;;20.62;58.53
72428;BME280;60419;48.880;18.036;2022-07-21T05:14:32;99337.94;;;20.92;58.50
72428;BME280;60419;48.880;18.036;2022-07-21T05:17:17;99347.47;;;21.21;56.16
72428;BME280;60419;48.880;18.036;2022-07-21T05:20:04;99336.47;;;21.48;53.44
72428;BME280;60419;48.880;18.036;2022-07-21T05:22:49;99333.63;;;20.26;55.90
72428;BME280;60419;48.880;18.036;2022-07-21T05:25:35;99335.22;;;20.46;55.94
72428;BME280;60419;48.880;18.036;2022-07-21T05:28:21;99321.91;;;20.71;55.14
72428;BME280;60419;48.880;18.036;2022-07-21T05:31:07;99330.41;;;20.85;54.92
72428;BME280;60419;48.880;18.036;2022-07-21T05:33:53;99339.38;;;21.32;53.95
72428;BME280;60419;48.880;18.036;2022-07-21T05:36:38;99343.03;;;21.17;53.77
72428;BME280;60419;48.880;18.036;2022-07-21T05:39:23;99346.78;;;21.05;53.63
72428;BME280;60419;48.880;18.036;2022-07-21T05:42:09;99353.88;;;20.60;54.68
72428;BME280;60419;48.880;18.036;2022-07-21T05:44:54;99353.75;;;20.99;54.57
72428;BME280;60419;48.880;18.036;2022-07-21T05:47:41;99348.00;;;20.84;54.44
72428;BME280;60419;48.880;18.036;2022-07-21T05:50:28;99354.19;;;21.24;53.85
72428;BME280;60419;48.880;18.036;2022-07-21T05:53:14;99344.84;;;21.59;53.05
72428;BME280;60419;48.880;18.036;2022-07-21T05:55:59;99344.75;;;21.82;52.24
72428;BME280;60419;48.880;18.036;2022-07-21T05:58:45;99354.91;;;22.42;51.21
72428;BME280;60419;48.880;18.036;2022-07-21T06:01:30;99354.00;;;22.71;49.97
72428;BME280;60419;48.880;18.036;2022-07-21T06:04:15;99352.13;;;22.79;50.20
72428;BME280;60419;48.880;18.036;2022-07-21T06:07:01;99301.47;;;22.05;50.78
72428;BME280;60419;48.880;18.036;2022-07-21T06:09:46;99344.72;;;22.87;49.77
72428;BME280;60419;48.880;18.036;2022-07-21T06:12:32;99343.91;;;23.38;49.79
72428;BME280;60419;48.880;18.036;2022-07-21T06:15:18;99345.63;;;23.53;48.55
72428;BME280;60419;48.880;18.036;2022-07-21T06:18:05;99341.63;;;23.47;48.78
72428;BME280;60419;48.880;18.036;2022-07-21T06:20:50;99339.34;;;23.60;48.51
72428;BME280;60419;48.880;18.036;2022-07-21T06:23:36;99340.22;;;23.78;48.22
72428;BME280;60419;48.880;18.036;2022-07-21T06:26:21;99333.59;;;24.04;47.91
72428;BME280;60419;48.880;18.036;2022-07-21T06:29:07;99338.84;;;24.27;47.35
72428;BME280;60419;48.880;18.036;2022-07-21T06:31:52;99338.59;;;23.08;49.47
72428;BME280;60419;48.880;18.036;2022-07-21T06:34:38;99332.84;;;22.75;50.86
72428;BME280;60419;48.880;18.036;2022-07-21T06:37:23;99337.47;;;22.68;51.33
72428;BME280;60419;48.880;18.036;2022-07-21T06:40:09;99335.75;;;22.93;50.26
72428;BME280;60419;48.880;18.036;2022-07-21T06:42:55;99337.72;;;22.96;50.13
72428;BME280;60419;48.880;18.036;2022-07-21T06:45:40;99335.16;;;22.73;50.32
72428;BME280;60419;48.880;18.036;2022-07-21T06:48:26;99338.78;;;23.36;48.78
72428;BME280;60419;48.880;18.036;2022-07-21T06:51:11;99337.81;;;23.73;48.40
72428;BME280;60419;48.880;18.036;2022-07-21T06:53:57;99331.72;;;24.23;46.93
72428;BME280;60419;48.880;18.036;2022-07-21T06:56:42;99322.28;;;24.38;46.79
72428;BME280;60419;48.880;18.036;2022-07-21T06:59:27;99337.63;;;24.18;47.05
72428;BME280;60419;48.880;18.036;2022-07-21T07:02:13;99304.53;;;24.21;46.42
72428;BME280;60419;48.880;18.036;2022-07-21T07:04:58;99334.94;;;24.75;45.21
72428;BME280;60419;48.880;18.036;2022-07-21T07:07:44;99339.28;;;24.72;44.69
72428;BME280;60419;48.880;18.036;2022-07-21T07:10:30;99327.81;;;24.38;45.41
72428;BME280;60419;48.880;18.036;2022-07-21T07:13:15;99322.09;;;23.77;46.16
72428;BME280;60419;48.880;18.036;2022-07-21T07:16:03;99338.38;;;24.11;46.40
72428;BME280;60419;48.880;18.036;2022-07-21T07:18:48;99332.94;;;24.32;46.17
72428;BME280;60419;48.880;18.036;2022-07-21T07:21:34;99339.25;;;24.54;45.65
72428;BME280;60419;48.880;18.036;2022-07-21T07:24:19;99323.91;;;25.11;44.40
72428;BME280;60419;48.880;18.036;2022-07-21T07:27:05;99326.66;;;25.14;43.71
72428;BME280;60419;48.880;18.036;2022-07-21T07:29:51;99337.69;;;25.25;44.16
72428;BME280;60419;48.880;18.036;2022-07-21T07:32:37;99337.09;;;26.02;42.83
72428;BME280;60419;48.880;18.036;2022-07-21T07:35:22;99337.44;;;26.15;42.59
72428;BME280;60419;48.880;18.036;2022-07-21T07:38:12;99329.84;;;26.33;41.85
72428;BME280;60419;48.880;18.036;2022-07-21T07:40:58;99322.31;;;26.34;40.91
72428;BME280;60419;48.880;18.036;2022-07-21T07:43:44;99312.03;;;26.34;41.09
72428;BME280;60419;48.880;18.036;2022-07-21T07:46:30;99309.84;;;27.12;39.70
72428;BME280;60419;48.880;18.036;2022-07-21T07:49:15;99315.41;;;26.60;38.83
72428;BME280;60419;48.880;18.036;2022-07-21T07:52:01;99307.22;;;26.98;37.97
72428;BME280;60419;48.880;18.036;2022-07-21T07:54:48;99303.38;;;26.84;38.32
72428;BME280;60419;48.880;18.036;2022-07-21T07:57:34;99309.69;;;27.64;37.06
72428;BME280;60419;48.880;18.036;2022-07-21T08:00:20;99286.88;;;27.11;38.34
72428;BME280;60419;48.880;18.036;2022-07-21T08:03:06;99280.22;;;27.05;38.97
72428;BME280;60419;48.880;18.036;2022-07-21T08:05:52;99283.88;;;27.71;37.00
72428;BME280;60419;48.880;18.036;2022-07-21T08:08:38;99273.63;;;27.95;36.13
72428;BME280;60419;48.880;18.036;2022-07-21T08:11:23;99282.63;;;28.33;35.65
72428;BME280;60419;48.880;18.036;2022-07-21T08:14:09;99283.00;;;28.59;35.48
72428;BME280;60419;48.880;18.036;2022-07-21T08:16:54;99289.66;;;29.12;34.88
72428;BME280;60419;48.880;18.036;2022-07-21T08:19:40;99285.13;;;29.22;34.33
72428;BME280;60419;48.880;18.036;2022-07-21T08:22:25;99277.97;;;29.24;34.21
72428;BME280;60419;48.880;18.036;2022-07-21T08:25:11;99287.81;;;29.69;34.14
72428;BME280;60419;48.880;18.036;2022-07-21T08:27:56;99287.63;;;29.96;33.76
72428;BME280;60419;48.880;18.036;2022-07-21T08:30:42;99283.53;;;29.84;34.03
72428;BME280;60419;48.880;18.036;2022-07-21T08:33:27;99283.88;;;29.66;33.65
72428;BME280;60419;48.880;18.036;2022-07-21T08:36:13;99272.97;;;30.28;32.81
72428;BME280;60419;48.880;18.036;2022-07-21T08:38:58;99261.53;;;30.43;32.07
72428;BME280;60419;48.880;18.036;2022-07-21T08:41:44;99257.91;;;30.26;32.41
72428;BME280;60419;48.880;18.036;2022-07-21T08:44:29;99259.84;;;30.61;31.22
72428;BME280;60419;48.880;18.036;2022-07-21T08:47:15;99267.66;;;30.83;29.47
72428;BME280;60419;48.880;18.036;2022-07-21T08:50:00;99264.97;;;30.96;30.53
72428;BME280;60419;48.880;18.036;2022-07-21T08:52:46;99257.50;;;31.51;30.12
72428;BME280;60419;48.880;18.036;2022-07-21T08:55:34;99256.84;;;31.60;29.17
72428;BME280;60419;48.880;18.036;2022-07-21T08:58:20;99260.50;;;31.28;28.75
72428;BME280;60419;48.880;18.036;2022-07-21T09:01:05;99249.84;;;31.39;28.70
72428;BME280;60419;48.880;18.036;2022-07-21T09:03:51;99244.09;;;31.59;27.94
72428;BME280;60419;48.880;18.036;2022-07-21T09:07:09;99240.34;;;31.78;27.51
72428;BME280;60419;48.880;18.036;2022-07-21T09:10:02;99250.63;;;31.94;28.02
72428;BME280;60419;48.880;18.036;2022-07-21T09:12:53;99238.78;;;31.90;27.64
72428;BME280;60419;48.880;18.036;2022-07-21T09:15:39;99243.53;;;31.22;25.27
72428;BME280;60419;48.880;18.036;2022-07-21T09:18:24;99237.53;;;30.78;26.27
72428;BME280;60419;48.880;18.036;2022-07-21T09:21:10;99244.47;;;31.02;25.95
72428;BME280;60419;48.880;18.036;2022-07-21T09:24:19;99238.50;;;31.46;25.51
72428;BME280;60419;48.880;18.036;2022-07-21T09:27:06;99239.75;;;31.58;25.53
72428;BME280;60419;48.880;18.036;2022-07-21T09:29:56;99227.38;;;31.72;25.44
72428;BME280;60419;48.880;18.036;2022-07-21T09:32:42;99196.09;;;31.89;25.01
72428;BME280;60419;48.880;18.036;2022-07-21T09:35:28;99220.72;;;32.20;24.47
72428;BME280;60419;48.880;18.036;2022-07-21T09:38:13;99219.25;;;32.28;24.82
72428;BME280;60419;48.880;18.036;2022-07-21T09:41:25;99217.09;;;32.58;24.81
72428;BME280;60419;48.880;18.036;2022-07-21T09:44:11;99212.88;;;32.15;23.73
72428;BME280;60419;48.880;18.036;2022-07-21T09:47:09;99206.69;;;32.46;23.94
72428;BME280;60419;48.880;18.036;2022-07-21T09:49:57;99151.56;;;32.11;23.69
72428;BME280;60419;48.880;18.036;2022-07-21T09:52:44;99203.34;;;32.86;23.72
72428;BME280;60419;48.880;18.036;2022-07-21T09:55:29;99205.59;;;31.79;23.57
72428;BME280;60419;48.880;18.036;2022-07-21T09:58:16;99205.38;;;31.61;23.62
72428;BME280;60419;48.880;18.036;2022-07-21T10:01:02;99200.78;;;31.54;23.82
72428;BME280;60419;48.880;18.036;2022-07-21T10:03:48;99139.28;;;31.58;23.50
72428;BME280;60419;48.880;18.036;2022-07-21T10:06:37;99204.47;;;31.77;24.41
72428;BME280;60419;48.880;18.036;2022-07-21T10:09:22;99182.03;;;31.55;24.05
72428;BME280;60419;48.880;18.036;2022-07-21T10:12:08;99196.13;;;32.02;24.16
72428;BME280;60419;48.880;18.036;2022-07-21T10:14:54;99194.94;;;32.03;23.74
72428;BME280;60419;48.880;18.036;2022-07-21T10:17:40;99188.75;;;31.96;23.94
72428;BME280;60419;48.880;18.036;2022-07-21T10:20:30;99185.84;;;32.12;24.08
72428;BME280;60419;48.880;18.036;2022-07-21T10:23:40;99187.19;;;32.20;23.44
72428;BME280;60419;48.880;18.036;2022-07-21T10:26:27;99184.50;;;32.29;23.06
72428;BME280;60419;48.880;18.036;2022-07-21T10:29:12;99182.47;;;32.30;22.61
72428;BME280;60419;48.880;18.036;2022-07-21T10:32:10;99183.75;;;32.51;22.20
72428;BME280;60419;48.880;18.036;2022-07-21T10:34:58;99183.91;;;32.82;22.30
72428;BME280;60419;48.880;18.036;2022-07-21T10:37:44;99175.56;;;32.69;22.34
72428;BME280;60419;48.880;18.036;2022-07-21T10:46:32;99166.59;;;34.12;21.64
72428;BME280;60419;48.880;18.036;2022-07-21T10:49:42;99159.47;;;34.39;21.51
72428;BME280;60419;48.880;18.036;2022-07-21T10:55:21;99154.78;;;32.58;22.38
72428;BME280;60419;48.880;18.036;2022-07-21T11:01:03;99139.84;;;32.95;21.55
72428;BME280;60419;48.880;18.036;2022-07-21T11:04:10;99155.97;;;33.57;22.04
72428;BME280;60419;48.880;18.036;2022-07-21T11:06:56;99138.81;;;33.55;21.33
72428;BME280;60419;48.880;18.036;2022-07-21T11:10:13;99147.72;;;33.32;21.18
72428;BME280;60419;48.880;18.036;2022-07-21T11:12:59;99129.44;;;32.96;21.88
72428;BME280;60419;48.880;18.036;2022-07-21T11:18:42;99122.56;;;34.31;21.21
72428;BME280;60419;48.880;18.036;2022-07-21T11:21:28;99138.69;;;33.99;20.72
72428;BME280;60419;48.880;18.036;2022-07-21T11:24:18;99137.66;;;33.75;20.39
72428;BME280;60419;48.880;18.036;2022-07-21T11:27:09;99131.28;;;34.15;21.24
72428;BME280;60419;48.880;18.036;2022-07-21T11:29:57;99126.34;;;34.65;21.09
72428;BME280;60419;48.880;18.036;2022-07-21T11:32:47;99122.72;;;34.37;20.57
72428;BME280;60419;48.880;18.036;2022-07-21T11:35:37;99137.53;;;33.78;20.41
72428;BME280;60419;48.880;18.036;2022-07-21T11:38:22;99129.22;;;33.34;21.29
72428;BME280;60419;48.880;18.036;2022-07-21T11:41:17;99119.75;;;33.72;21.48
72428;BME280;60419;48.880;18.036;2022-07-21T11:44:08;99119.56;;;33.57;21.09
72428;BME280;60419;48.880;18.036;2022-07-21T11:46:54;99115.06;;;34.10;20.26
72428;BME280;60419;48.880;18.036;2022-07-21T11:49:41;99100.13;;;34.31;20.59
72428;BME280;60419;48.880;18.036;2022-07-21T11:52:31;99104.34;;;34.45;20.46
72428;BME280;60419;48.880;18.036;2022-07-21T11:55:17;99090.97;;;34.67;20.02
72428;BME280;60419;48.880;18.036;2022-07-21T11:58:02;99093.84;;;35.19;19.67
72428;BME280;60419;48.880;18.036;2022-07-21T12:00:48;99088.53;;;35.03;19.19
72428;BME280;60419;48.880;18.036;2022-07-21T12:03:34;99087.50;;;34.26;19.77
72428;BME280;60419;48.880;18.036;2022-07-21T12:06:19;99088.75;;;34.81;19.87
72428;BME280;60419;48.880;18.036;2022-07-21T12:09:05;99093.50;;;33.79;20.62
72428;BME280;60419;48.880;18.036;2022-07-21T12:11:51;99072.66;;;33.98;20.42
72428;BME280;60419;48.880;18.036;2022-07-21T12:18:22;99065.41;;;34.75;19.91
72428;BME280;60419;48.880;18.036;2022-07-21T12:21:10;99040.75;;;34.88;19.75
72428;BME280;60419;48.880;18.036;2022-07-21T12:23:55;99074.69;;;34.99;20.18
72428;BME280;60419;48.880;18.036;2022-07-21T12:26:41;99059.41;;;35.09;19.71
72428;BME280;60419;48.880;18.036;2022-07-21T12:29:28;99048.75;;;34.43;19.42
72428;BME280;60419;48.880;18.036;2022-07-21T12:32:14;99070.25;;;34.65;19.73
72428;BME280;60419;48.880;18.036;2022-07-21T12:35:22;99065.94;;;35.58;19.82
72428;BME280;60419;48.880;18.036;2022-07-21T12:38:10;99048.53;;;35.93;19.17
72428;BME280;60419;48.880;18.036;2022-07-21T12:40:56;99057.19;;;35.47;19.55
72428;BME280;60419;48.880;18.036;2022-07-21T12:43:43;99050.06;;;35.36;19.88
72428;BME280;60419;48.880;18.036;2022-07-21T12:46:38;99048.78;;;35.04;19.37
72428;BME280;60419;48.880;18.036;2022-07-21T12:49:24;99042.91;;;34.84;18.98
72428;BME280;60419;48.880;18.036;2022-07-21T12:52:11;99045.31;;;35.19;18.61
72428;BME280;60419;48.880;18.036;2022-07-21T12:54:58;99023.25;;;34.93;18.95
72428;BME280;60419;48.880;18.036;2022-07-21T12:57:44;99040.69;;;35.06;19.26
72428;BME280;60419;48.880;18.036;2022-07-21T13:00:29;99029.47;;;34.97;19.22
72428;BME280;60419;48.880;18.036;2022-07-21T13:03:15;99025.94;;;34.78;19.17
72428;BME280;60419;48.880;18.036;2022-07-21T13:06:02;99036.00;;;35.03;20.77
72428;BME280;60419;48.880;18.036;2022-07-21T13:08:48;99026.38;;;35.38;18.68
72428;BME280;60419;48.880;18.036;2022-07-21T13:11:34;99022.22;;;35.57;19.39
72428;BME280;60419;48.880;18.036;2022-07-21T13:14:19;99009.06;;;34.87;19.35
72428;BME280;60419;48.880;18.036;2022-07-21T13:17:05;99017.34;;;34.91;19.43
72428;BME280;60419;48.880;18.036;2022-07-21T13:19:50;99018.88;;;35.68;19.40
72428;BME280;60419;48.880;18.036;2022-07-21T13:22:35;99012.78;;;35.69;19.64
72428;BME280;60419;48.880;18.036;2022-07-21T13:25:21;99012.25;;;35.80;19.20
72428;BME280;60419;48.880;18.036;2022-07-21T13:28:06;99012.19;;;36.28;18.78
72428;BME280;60419;48.880;18.036;2022-07-21T13:30:52;99011.47;;;36.04;19.19
72428;BME280;60419;48.880;18.036;2022-07-21T13:33:39;99007.94;;;36.48;19.39
72428;BME280;60419;48.880;18.036;2022-07-21T13:36:24;99008.25;;;36.50;18.63
72428;BME280;60419;48.880;18.036;2022-07-21T13:39:10;99004.47;;;36.82;18.26
72428;BME280;60419;48.880;18.036;2022-07-21T13:41:56;98985.22;;;36.07;18.20
72428;BME280;60419;48.880;18.036;2022-07-21T13:44:42;98995.44;;;36.49;18.45
72428;BME280;60419;48.880;18.036;2022-07-21T13:47:28;98999.50;;;36.92;18.78
72428;BME280;60419;48.880;18.036;2022-07-21T13:50:14;99004.38;;;36.77;18.20
72428;BME280;60419;48.880;18.036;2022-07-21T13:53:00;98993.25;;;37.33;17.58
72428;BME280;60419;48.880;18.036;2022-07-21T13:55:46;98994.28;;;37.00;18.55
72428;BME280;60419;48.880;18.036;2022-07-21T13:58:32;98989.03;;;37.07;18.11
72428;BME280;60419;48.880;18.036;2022-07-21T14:01:18;98990.47;;;37.18;18.46
72428;BME280;60419;48.880;18.036;2022-07-21T14:04:04;98972.38;;;37.24;17.96
72428;BME280;60419;48.880;18.036;2022-07-21T14:06:51;98984.00;;;36.82;17.40
72428;BME280;60419;48.880;18.036;2022-07-21T14:09:37;98972.66;;;36.32;18.06
72428;BME280;60419;48.880;18.036;2022-07-21T14:12:24;98989.13;;;36.24;17.75
72428;BME280;60419;48.880;18.036;2022-07-21T14:15:10;98964.03;;;35.96;17.96
72428;BME280;60419;48.880;18.036;2022-07-21T14:17:59;98970.81;;;36.29;18.24
72428;BME280;60419;48.880;18.036;2022-07-21T14:20:45;98968.13;;;35.47;18.63
72428;BME280;60419;48.880;18.036;2022-07-21T14:23:33;98967.72;;;36.71;18.58
72428;BME280;60419;48.880;18.036;2022-07-21T14:26:19;98967.41;;;36.99;17.71
72428;BME280;60419;48.880;18.036;2022-07-21T14:29:05;98966.31;;;37.11;17.62
72428;BME280;60419;48.880;18.036;2022-07-21T14:31:52;98976.53;;;37.44;17.77
72428;BME280;60419;48.880;18.036;2022-07-21T14:34:38;98957.53;;;37.24;17.40
72428;BME280;60419;48.880;18.036;2022-07-21T14:37:24;98934.50;;;37.05;18.09
72428;BME280;60419;48.880;18.036;2022-07-21T14:40:11;98957.09;;;37.11;17.93
72428;BME280;60419;48.880;18.036;2022-07-21T14:42:57;98956.59;;;37.12;17.89
72428;BME280;60419;48.880;18.036;2022-07-21T14:45:43;98954.88;;;37.00;17.29
72428;BME280;60419;48.880;18.036;2022-07-21T14:48:30;98951.69;;;36.77;17.55
72428;BME280;60419;48.880;18.036;2022-07-21T14:51:16;98957.88;;;36.96;17.29